Time,TemperatureF,DewpointF,PressureIn,WindDirection,WindDirectionDegrees,WindSpeedMPH,WindSpeedGustMPH,Humidity,HourlyPrecipIn,Conditions,Clouds,dailyrainin,SoftwareType,DateUTC
2013-03-31 00:00:00,54.3,52.6,29.95,North,349,0.0,0.0,94,0.12,,,0.31,WeatherCatV1.11B39,2013-03-31 04:00:00,
2013-03-31 00:01:00,54.3,52.6,29.95,North,349,0.0,0.0,94,0.10,,,0.00,WeatherCatV1.11B39,2013-03-31 04:01:00,
2013-03-31 00:06:00,54.3,52.6,29.95,North,349,0.0,2.0,94,0.07,,,0.01,WeatherCatV1.11B39,2013-03-31 04:06:00,
2013-03-31 00:11:00,54.3,52.6,29.94,North,350,0.0,0.0,94,0.11,,,0.02,WeatherCatV1.11B39,2013-03-31 04:11:00,
2013-03-31 00:16:00,54.2,52.5,29.95,North,350,2.0,2.0,94,0.09,,,0.02,WeatherCatV1.11B39,2013-03-31 04:16:00,
2013-03-31 00:21:00,54.2,52.5,29.95,West,270,0.0,0.0,94,1.32,,,0.06,WeatherCatV1.11B39,2013-03-31 04:21:00,
2013-03-31 00:26:00,54.2,52.5,29.95,West,270,0.0,1.0,94,0.24,,,0.09,WeatherCatV1.11B39,2013-03-31 04:26:00,
2013-03-31 00:31:00,54.2,52.5,29.94,West,270,0.0,0.0,94,0.20,,,0.10,WeatherCatV1.11B39,2013-03-31 04:31:00,
2013-03-31 00:36:00,54.1,52.4,29.94,West,272,0.0,0.0,94,0.11,,,0.11,WeatherCatV1.11B39,2013-03-31 04:36:00,
2013-03-31 00:41:00,54.1,52.4,29.94,West,272,0.0,0.0,94,0.08,,,0.11,WeatherCatV1.11B39,2013-03-31 04:41:00,
2013-03-31 00:46:00,54.1,52.4,29.93,West,272,0.0,0.0,94,0.05,,,0.11,WeatherCatV1.11B39,2013-03-31 04:46:00,
2013-03-31 00:51:00,54.0,52.3,29.93,West,272,0.0,0.0,94,0.05,,,0.12,WeatherCatV1.11B39,2013-03-31 04:51:00,
2013-03-31 00:56:00,54.0,52.3,29.93,West,272,0.0,1.0,94,0.05,,,0.12,WeatherCatV1.11B39,2013-03-31 04:56:00,
2013-03-31 01:01:00,54.0,52.3,29.93,West,272,0.0,2.0,94,0.05,,,0.13,WeatherCatV1.11B39,2013-03-31 05:01:00,
2013-03-31 01:06:00,54.0,52.3,29.92,West,272,0.0,0.0,94,0.14,,,0.14,WeatherCatV1.11B39,2013-03-31 05:06:00,
2013-03-31 01:11:00,53.9,52.2,29.92,West,272,0.0,1.0,94,0.11,,,0.15,WeatherCatV1.11B39,2013-03-31 05:11:00,
2013-03-31 01:16:00,53.9,52.2,29.92,West,272,1.0,2.0,94,0.11,,,0.16,WeatherCatV1.11B39,2013-03-31 05:16:00,
2013-03-31 01:21:00,53.9,52.2,29.92,West,272,0.0,0.0,94,0.08,,,0.16,WeatherCatV1.11B39,2013-03-31 05:21:00,
2013-03-31 01:26:00,53.9,52.2,29.92,West,272,0.0,0.0,94,0.06,,,0.17,WeatherCatV1.11B39,2013-03-31 05:26:00,
2013-03-31 01:31:00,53.9,52.2,29.92,West,272,0.0,0.0,94,0.06,,,0.17,WeatherCatV1.11B39,2013-03-31 05:31:00,
2013-03-31 01:36:00,53.9,52.2,29.92,West,272,0.0,0.0,94,0.08,,,0.18,WeatherCatV1.11B39,2013-03-31 05:36:00,
2013-03-31 01:41:00,53.9,52.2,29.92,West,272,0.0,0.0,94,0.06,,,0.18,WeatherCatV1.11B39,2013-03-31 05:41:00,
2013-03-31 01:46:00,53.8,52.1,29.92,West,272,0.0,0.0,94,0.06,,,0.19,WeatherCatV1.11B39,2013-03-31 05:46:00,
2013-03-31 01:51:00,53.8,52.1,29.91,West,272,1.0,1.0,94,0.06,,,0.19,WeatherCatV1.11B39,2013-03-31 05:51:00,
2013-03-31 01:56:00,53.9,52.5,29.92,WSW,239,3.0,4.0,95,0.06,,,0.20,WeatherCatV1.11B39,2013-03-31 05:56:00,
2013-03-31 02:01:00,53.9,52.5,29.92,South,173,5.0,8.0,95,0.48,,,0.23,WeatherCatV1.11B39,2013-03-31 06:01:00,
2013-03-31 02:06:00,53.9,52.5,29.91,ESE,111,0.0,2.0,95,0.18,,,0.25,WeatherCatV1.11B39,2013-03-31 06:06:00,
2013-03-31 02:11:00,53.8,52.4,29.91,ESE,111,0.0,0.0,95,0.12,,,0.26,WeatherCatV1.11B39,2013-03-31 06:11:00,
2013-03-31 02:16:00,53.8,52.4,29.91,ESE,111,0.0,0.0,95,0.07,,,0.26,WeatherCatV1.11B39,2013-03-31 06:16:00,
2013-03-31 02:21:00,53.8,52.4,29.91,ESE,111,0.0,0.0,95,0.05,,,0.27,WeatherCatV1.11B39,2013-03-31 06:21:00,
2013-03-31 02:26:00,53.7,52.3,29.91,ESE,111,0.0,0.0,95,0.05,,,0.27,WeatherCatV1.11B39,2013-03-31 06:26:00,
2013-03-31 02:31:00,53.7,52.3,29.90,ESE,111,0.0,0.0,95,0.24,,,0.29,WeatherCatV1.11B39,2013-03-31 06:31:00,
2013-03-31 02:36:00,53.7,52.3,29.90,ESE,111,0.0,0.0,95,0.11,,,0.30,WeatherCatV1.11B39,2013-03-31 06:36:00,
2013-03-31 02:41:00,53.7,52.3,29.90,ESE,111,0.0,0.0,95,0.10,,,0.30,WeatherCatV1.11B39,2013-03-31 06:41:00,
2013-03-31 02:46:00,53.7,52.3,29.89,ESE,111,0.0,0.0,95,0.08,,,0.31,WeatherCatV1.11B39,2013-03-31 06:46:00,
2013-03-31 02:51:00,53.7,52.3,29.89,ESE,111,0.0,0.0,95,0.07,,,0.31,WeatherCatV1.11B39,2013-03-31 06:51:00,
2013-03-31 02:56:00,53.7,52.3,29.89,ESE,111,1.0,2.0,95,0.05,,,0.32,WeatherCatV1.11B39,2013-03-31 06:56:00,
2013-03-31 03:01:00,53.7,52.3,29.89,ESE,111,0.0,0.0,95,0.13,,,0.33,WeatherCatV1.11B39,2013-03-31 07:01:00,
2013-03-31 03:06:00,53.7,52.3,29.89,ESE,111,0.0,0.0,95,0.10,,,0.34,WeatherCatV1.11B39,2013-03-31 07:06:00,
2013-03-31 03:11:00,53.7,52.3,29.88,ESE,111,0.0,0.0,95,0.09,,,0.34,WeatherCatV1.11B39,2013-03-31 07:11:00,
2013-03-31 03:16:00,53.7,52.3,29.88,ESE,111,0.0,2.0,95,0.08,,,0.35,WeatherCatV1.11B39,2013-03-31 07:16:00,
2013-03-31 03:21:00,53.7,52.3,29.88,ESE,111,0.0,1.0,95,0.13,,,0.36,WeatherCatV1.11B39,2013-03-31 07:21:00,
2013-03-31 03:26:00,53.7,52.3,29.88,ESE,111,2.0,5.0,95,0.22,,,0.38,WeatherCatV1.11B39,2013-03-31 07:26:00,
2013-03-31 03:31:00,53.7,52.3,29.88,ESE,116,1.0,4.0,95,0.10,,,0.39,WeatherCatV1.11B39,2013-03-31 07:31:00,
2013-03-31 03:36:00,53.7,52.3,29.89,ESE,116,2.0,2.0,95,0.26,,,0.41,WeatherCatV1.11B39,2013-03-31 07:36:00,
2013-03-31 03:41:00,53.7,52.3,29.89,SE,131,4.0,5.0,95,0.20,,,0.43,WeatherCatV1.11B39,2013-03-31 07:41:00,
2013-03-31 03:46:00,53.7,52.3,29.88,SE,132,5.0,5.0,95,0.15,,,0.44,WeatherCatV1.11B39,2013-03-31 07:46:00,
2013-03-31 03:51:00,53.7,52.3,29.88,South,169,6.0,8.0,95,0.07,,,0.44,WeatherCatV1.11B39,2013-03-31 07:51:00,
2013-03-31 03:56:00,53.8,52.4,29.87,SE,135,4.0,4.0,95,0.06,,,0.45,WeatherCatV1.11B39,2013-03-31 07:56:00,
2013-03-31 04:01:00,53.9,52.5,29.87,SE,137,2.0,5.0,95,0.07,,,0.46,WeatherCatV1.11B39,2013-03-31 08:01:00,
2013-03-31 04:06:00,53.9,52.5,29.86,SSE,151,2.0,7.0,95,0.07,,,0.46,WeatherCatV1.11B39,2013-03-31 08:06:00,
2013-03-31 04:11:00,53.9,52.5,29.87,SSE,159,4.0,6.0,95,0.05,,,0.46,WeatherCatV1.11B39,2013-03-31 08:11:00,
2013-03-31 04:16:00,54.0,52.6,29.87,SE,127,5.0,9.0,95,0.04,,,0.46,WeatherCatV1.11B39,2013-03-31 08:16:00,
2013-03-31 04:21:00,54.1,52.7,29.87,South,176,6.0,8.0,95,0.00,,,0.46,WeatherCatV1.11B39,2013-03-31 08:21:00,
2013-03-31 04:26:00,54.2,52.8,29.87,South,171,7.0,7.0,95,0.00,,,0.46,WeatherCatV1.11B39,2013-03-31 08:26:00,
2013-03-31 04:31:00,54.2,52.8,29.87,SSW,192,1.0,2.0,95,0.00,,,0.47,WeatherCatV1.11B39,2013-03-31 08:31:00,
2013-03-31 04:36:00,54.3,52.9,29.87,SW,221,6.0,11.0,95,0.00,,,0.47,WeatherCatV1.11B39,2013-03-31 08:36:00,
2013-03-31 04:41:00,54.5,53.1,29.87,WSW,250,2.0,9.0,95,0.00,,,0.47,WeatherCatV1.11B39,2013-03-31 08:41:00,
2013-03-31 04:46:00,54.5,53.1,29.86,West,259,0.0,4.0,95,0.00,,,0.47,WeatherCatV1.11B39,2013-03-31 08:46:00,
2013-03-31 04:51:00,54.5,53.1,29.86,SSE,156,4.0,6.0,95,0.00,,,0.47,WeatherCatV1.11B39,2013-03-31 08:51:00,
2013-03-31 04:56:00,54.5,53.1,29.86,South,172,0.0,4.0,95,0.00,,,0.48,WeatherCatV1.11B39,2013-03-31 08:56:00,
2013-03-31 05:01:00,54.5,53.1,29.85,South,172,0.0,1.0,95,0.00,,,0.48,WeatherCatV1.11B39,2013-03-31 09:01:00,
2013-03-31 05:06:00,54.5,53.1,29.85,South,172,1.0,4.0,95,0.00,,,0.48,WeatherCatV1.11B39,2013-03-31 09:06:00,
2013-03-31 05:11:00,54.5,53.1,29.85,South,171,0.0,0.0,95,0.00,,,0.48,WeatherCatV1.11B39,2013-03-31 09:11:00,
2013-03-31 05:16:00,54.4,53.0,29.85,South,171,0.0,0.0,95,0.00,,,0.49,WeatherCatV1.11B39,2013-03-31 09:16:00,
2013-03-31 05:21:00,54.4,53.0,29.84,South,171,0.0,0.0,95,0.00,,,0.49,WeatherCatV1.11B39,2013-03-31 09:21:00,
2013-03-31 05:26:00,54.4,53.0,29.85,South,171,0.0,0.0,95,0.00,,,0.49,WeatherCatV1.11B39,2013-03-31 09:26:00,
2013-03-31 05:31:00,54.4,53.0,29.85,SSE,157,0.0,7.0,95,0.00,,,0.49,WeatherCatV1.11B39,2013-03-31 09:31:00,
2013-03-31 05:36:00,54.4,53.0,29.85,South,171,2.0,7.0,95,0.00,,,0.50,WeatherCatV1.11B39,2013-03-31 09:36:00,
2013-03-31 05:41:00,54.5,53.1,29.85,SSE,165,4.0,6.0,95,0.00,,,0.50,WeatherCatV1.11B39,2013-03-31 09:41:00,
2013-03-31 05:46:00,54.5,53.1,29.85,SSE,165,8.0,9.0,95,0.00,,,0.50,WeatherCatV1.11B39,2013-03-31 09:46:00,
2013-03-31 05:51:00,54.6,53.2,29.84,South,169,4.0,8.0,95,0.00,,,0.50,WeatherCatV1.11B39,2013-03-31 09:51:00,
2013-03-31 05:56:00,54.6,52.9,29.84,SSE,157,9.0,9.0,94,0.00,,,0.50,WeatherCatV1.11B39,2013-03-31 09:56:00,
2013-03-31 06:01:00,54.7,53.0,29.84,SE,142,6.0,8.0,94,0.00,,,0.50,WeatherCatV1.11B39,2013-03-31 10:01:00,
2013-03-31 06:06:00,54.8,53.1,29.83,SSE,151,9.0,9.0,94,0.00,,,0.50,WeatherCatV1.11B39,2013-03-31 10:06:00,
2013-03-31 06:11:00,54.8,53.1,29.83,South,175,6.0,9.0,94,0.00,,,0.50,WeatherCatV1.11B39,2013-03-31 10:11:00,
2013-03-31 06:16:00,54.9,53.2,29.83,SE,134,6.0,8.0,94,0.00,,,0.50,WeatherCatV1.11B39,2013-03-31 10:16:00,
2013-03-31 06:21:00,54.9,53.2,29.83,SSE,166,5.0,8.0,94,0.00,,,0.50,WeatherCatV1.11B39,2013-03-31 10:21:00,
2013-03-31 06:26:00,54.9,53.2,29.83,SSE,157,4.0,6.0,94,0.00,,,0.50,WeatherCatV1.11B39,2013-03-31 10:26:00,
2013-03-31 06:31:00,54.9,53.2,29.83,SSE,161,1.0,6.0,94,0.00,,,0.50,WeatherCatV1.11B39,2013-03-31 10:31:00,
2013-03-31 06:36:00,54.9,53.2,29.83,South,188,1.0,4.0,94,0.00,,,0.50,WeatherCatV1.11B39,2013-03-31 10:36:00,
2013-03-31 06:41:00,54.8,53.1,29.83,South,186,0.0,2.0,94,0.00,,,0.50,WeatherCatV1.11B39,2013-03-31 10:41:00,
2013-03-31 06:46:00,54.8,53.1,29.83,South,169,4.0,5.0,94,0.00,,,0.50,WeatherCatV1.11B39,2013-03-31 10:46:00,
2013-03-31 06:51:00,54.9,53.2,29.83,SSE,155,1.0,5.0,94,0.00,,,0.50,WeatherCatV1.11B39,2013-03-31 10:51:00,
2013-03-31 06:56:00,55.0,53.0,29.84,South,173,5.0,6.0,93,0.00,,,0.50,WeatherCatV1.11B39,2013-03-31 10:56:00,
2013-03-31 07:01:00,55.0,53.0,29.84,West,265,4.0,4.0,93,0.00,,,0.50,WeatherCatV1.11B39,2013-03-31 11:01:00,
2013-03-31 07:06:00,55.0,53.0,29.84,SW,236,1.0,1.0,93,0.00,,,0.50,WeatherCatV1.11B39,2013-03-31 11:06:00,
2013-03-31 07:11:00,55.0,53.0,29.84,WSW,252,2.0,6.0,93,0.00,,,0.50,WeatherCatV1.11B39,2013-03-31 11:11:00,
2013-03-31 07:16:00,55.1,53.1,29.84,SSE,168,1.0,5.0,93,0.00,,,0.50,WeatherCatV1.11B39,2013-03-31 11:16:00,
2013-03-31 07:20:00,55.1,53.1,29.84,SSW,204,5.0,7.0,93,0.00,,,0.50,WeatherCatV1.11B39,2013-03-31 11:20:00,
2013-03-31 07:25:00,55.1,53.1,29.84,SSE,168,4.0,6.0,93,0.00,,,0.50,WeatherCatV1.11B39,2013-03-31 11:25:00,
2013-03-31 07:30:00,55.2,53.2,29.84,SSE,159,1.0,4.0,93,0.00,,,0.50,WeatherCatV1.11B39,2013-03-31 11:30:00,
2013-03-31 07:35:00,55.2,53.2,29.84,SSE,159,1.0,4.0,93,0.00,,,0.50,WeatherCatV1.11B39,2013-03-31 11:35:00,
2013-03-31 07:40:00,55.2,53.2,29.84,SSE,159,0.0,5.0,93,0.00,,,0.50,WeatherCatV1.11B39,2013-03-31 11:40:00,
2013-03-31 07:45:00,55.2,53.2,29.85,WNW,292,0.0,5.0,93,0.00,,,0.50,WeatherCatV1.11B39,2013-03-31 11:45:00,
2013-03-31 07:50:00,55.3,53.3,29.85,WNW,292,2.0,2.0,93,0.00,,,0.50,WeatherCatV1.11B39,2013-03-31 11:50:00,
2013-03-31 07:55:00,55.3,53.3,29.85,SE,139,1.0,5.0,93,0.00,,,0.50,WeatherCatV1.11B39,2013-03-31 11:55:00,
2013-03-31 08:00:00,55.3,53.3,29.86,South,179,0.0,5.0,93,0.00,,,0.50,WeatherCatV1.11B39,2013-03-31 12:00:00,
2013-03-31 08:05:00,55.3,53.3,29.86,SW,236,2.0,5.0,93,0.00,,,0.50,WeatherCatV1.11B39,2013-03-31 12:05:00,
2013-03-31 08:10:00,55.3,53.0,29.86,SW,232,0.0,2.0,92,0.00,,,0.50,WeatherCatV1.11B39,2013-03-31 12:10:00,
2013-03-31 08:15:00,55.4,53.1,29.86,WSW,240,3.0,7.0,92,0.00,,,0.50,WeatherCatV1.11B39,2013-03-31 12:15:00,
2013-03-31 08:20:00,55.5,53.2,29.85,South,184,2.0,7.0,92,0.00,,,0.50,WeatherCatV1.11B39,2013-03-31 12:20:00,
2013-03-31 08:25:00,55.5,53.2,29.85,WSW,238,3.0,6.0,92,0.00,,,0.50,WeatherCatV1.11B39,2013-03-31 12:25:00,
2013-03-31 08:30:00,55.5,53.2,29.85,SW,233,1.0,4.0,92,0.00,,,0.50,WeatherCatV1.11B39,2013-03-31 12:30:00,
2013-03-31 08:35:00,55.6,53.3,29.86,SW,233,2.0,3.0,92,0.00,,,0.50,WeatherCatV1.11B39,2013-03-31 12:35:00,
2013-03-31 08:40:00,55.6,53.3,29.86,West,261,4.0,4.0,92,0.00,,,0.50,WeatherCatV1.11B39,2013-03-31 12:40:00,
2013-03-31 08:45:00,55.7,53.4,29.86,West,263,0.0,2.0,92,0.00,,,0.50,WeatherCatV1.11B39,2013-03-31 12:45:00,
2013-03-31 08:50:00,55.7,53.4,29.86,WSW,248,1.0,4.0,92,0.00,,,0.50,WeatherCatV1.11B39,2013-03-31 12:50:00,
2013-03-31 08:55:00,55.8,53.5,29.86,WSW,245,1.0,3.0,92,0.00,,,0.50,WeatherCatV1.11B39,2013-03-31 12:55:00,
2013-03-31 09:00:00,55.9,53.6,29.86,SSE,154,2.0,5.0,92,0.00,,,0.50,WeatherCatV1.11B39,2013-03-31 13:00:00,
2013-03-31 09:05:00,56.0,53.4,29.86,SSE,163,4.0,7.0,91,0.00,,,0.50,WeatherCatV1.11B39,2013-03-31 13:05:00,
2013-03-31 09:10:00,56.1,53.5,29.86,WSW,257,1.0,4.0,91,0.00,,,0.50,WeatherCatV1.11B39,2013-03-31 13:10:00,
2013-03-31 09:15:00,56.2,53.6,29.86,South,187,1.0,3.0,91,0.00,,,0.50,WeatherCatV1.11B39,2013-03-31 13:15:00,
2013-03-31 09:20:00,56.4,53.8,29.86,SSE,161,4.0,5.0,91,0.00,,,0.50,WeatherCatV1.11B39,2013-03-31 13:20:00,
2013-03-31 09:25:00,56.5,53.9,29.86,SSE,159,4.0,7.0,91,0.00,,,0.50,WeatherCatV1.11B39,2013-03-31 13:25:00,
2013-03-31 09:30:00,56.8,54.2,29.86,SSE,149,4.0,5.0,91,0.00,,,0.50,WeatherCatV1.11B39,2013-03-31 13:30:00,
2013-03-31 09:35:00,56.9,54.0,29.87,SSE,161,6.0,10.0,90,0.00,,,0.50,WeatherCatV1.11B39,2013-03-31 13:35:00,
2013-03-31 09:40:00,57.1,54.2,29.87,South,171,7.0,7.0,90,0.00,,,0.50,WeatherCatV1.11B39,2013-03-31 13:40:00,
2013-03-31 09:45:00,57.2,54.0,29.87,SE,146,6.0,7.0,89,0.00,,,0.50,WeatherCatV1.11B39,2013-03-31 13:45:00,
2013-03-31 09:50:00,57.4,54.2,29.87,SSE,158,4.0,6.0,89,0.00,,,0.50,WeatherCatV1.11B39,2013-03-31 13:50:00,
2013-03-31 09:55:00,57.6,54.4,29.87,South,175,5.0,7.0,89,0.00,,,0.50,WeatherCatV1.11B39,2013-03-31 13:55:00,
2013-03-31 10:00:00,57.7,54.5,29.87,SSE,148,10.0,10.0,89,0.00,,,0.50,WeatherCatV1.11B39,2013-03-31 14:00:00,
2013-03-31 10:05:00,57.8,54.0,29.87,SSW,203,3.0,5.0,87,0.00,,,0.50,WeatherCatV1.11B39,2013-03-31 14:05:00,
2013-03-31 10:10:00,57.8,54.0,29.88,SSE,159,5.0,9.0,87,0.00,,,0.50,WeatherCatV1.11B39,2013-03-31 14:10:00,
2013-03-31 10:15:00,57.8,53.6,29.88,SSE,162,6.0,6.0,86,0.00,,,0.50,WeatherCatV1.11B39,2013-03-31 14:15:00,
2013-03-31 10:20:00,57.7,53.2,29.88,South,185,5.0,10.0,85,0.00,,,0.50,WeatherCatV1.11B39,2013-03-31 14:20:00,
2013-03-31 10:25:00,57.8,53.6,29.88,WSW,249,3.0,7.0,86,0.00,,,0.50,WeatherCatV1.11B39,2013-03-31 14:25:00,
2013-03-31 10:30:00,57.9,53.4,29.88,West,267,5.0,7.0,85,0.00,,,0.50,WeatherCatV1.11B39,2013-03-31 14:30:00,
2013-03-31 10:35:00,58.1,53.9,29.88,SE,146,8.0,9.0,86,0.00,,,0.50,WeatherCatV1.11B39,2013-03-31 14:35:00,
2013-03-31 10:40:00,58.3,53.5,29.87,SSE,153,10.0,10.0,84,0.00,,,0.50,WeatherCatV1.11B39,2013-03-31 14:40:00,
2013-03-31 10:45:00,58.4,53.6,29.87,SSE,152,5.0,9.0,84,0.00,,,0.50,WeatherCatV1.11B39,2013-03-31 14:45:00,
2013-03-31 10:50:00,58.7,53.5,29.87,South,171,9.0,9.0,83,0.00,,,0.50,WeatherCatV1.11B39,2013-03-31 14:50:00,
2013-03-31 10:55:00,58.9,53.7,29.87,SSE,150,4.0,8.0,83,0.00,,,0.50,WeatherCatV1.11B39,2013-03-31 14:55:00,
2013-03-31 11:00:00,59.0,54.2,29.87,South,186,11.0,11.0,84,0.00,,,0.50,WeatherCatV1.11B39,2013-03-31 15:00:00,
2013-03-31 11:05:00,58.9,53.1,29.86,South,169,8.0,9.0,81,0.00,,,0.50,WeatherCatV1.11B39,2013-03-31 15:05:00,
2013-03-31 11:10:00,59.0,53.8,29.86,SSE,165,2.0,4.0,83,0.00,,,0.50,WeatherCatV1.11B39,2013-03-31 15:10:00,
2013-03-31 11:15:00,59.1,53.3,29.86,SSE,161,7.0,8.0,81,0.00,,,0.50,WeatherCatV1.11B39,2013-03-31 15:15:00,
2013-03-31 11:20:00,59.3,53.8,29.86,WNW,301,1.0,6.0,82,0.00,,,0.50,WeatherCatV1.11B39,2013-03-31 15:20:00,
2013-03-31 11:25:00,59.5,53.7,29.86,West,272,2.0,6.0,81,0.00,,,0.50,WeatherCatV1.11B39,2013-03-31 15:25:00,
2013-03-31 11:30:00,59.5,53.3,29.86,SSE,163,10.0,11.0,80,0.00,,,0.50,WeatherCatV1.11B39,2013-03-31 15:30:00,
2013-03-31 11:35:00,59.3,53.5,29.86,South,175,7.0,14.0,81,0.00,,,0.50,WeatherCatV1.11B39,2013-03-31 15:35:00,
2013-03-31 11:40:00,59.3,53.5,29.87,SSE,156,11.0,17.0,81,0.00,,,0.50,WeatherCatV1.11B39,2013-03-31 15:40:00,
2013-03-31 11:45:00,59.2,53.4,29.86,South,188,11.0,17.0,81,0.00,,,0.50,WeatherCatV1.11B39,2013-03-31 15:45:00,
2013-03-31 11:50:00,59.8,54.0,29.86,SSE,167,13.0,17.0,81,0.00,,,0.50,WeatherCatV1.11B39,2013-03-31 15:50:00,
2013-03-31 11:55:00,60.0,54.1,29.86,South,184,8.0,12.0,81,0.00,,,0.50,WeatherCatV1.11B39,2013-03-31 15:55:00,
2013-03-31 12:00:00,60.6,53.3,29.87,SSE,152,8.0,8.0,77,0.00,,,0.50,WeatherCatV1.11B39,2013-03-31 16:00:00,
2013-03-31 12:05:00,60.5,52.9,29.88,SSE,165,12.0,18.0,76,0.00,,,0.50,WeatherCatV1.11B39,2013-03-31 16:05:00,
2013-03-31 12:10:00,60.2,53.0,29.87,WSW,253,7.0,10.0,77,0.00,,,0.50,WeatherCatV1.11B39,2013-03-31 16:10:00,
2013-03-31 12:15:00,60.1,52.9,29.87,SW,217,7.0,15.0,77,0.00,,,0.50,WeatherCatV1.11B39,2013-03-31 16:15:00,
2013-03-31 12:19:00,60.0,52.8,29.87,SSE,162,13.0,15.0,77,0.00,,,0.50,WeatherCatV1.11B39,2013-03-31 16:19:00,
2013-03-31 12:24:00,59.9,52.3,29.87,South,172,15.0,18.0,76,0.00,,,0.50,WeatherCatV1.11B39,2013-03-31 16:24:00,
2013-03-31 12:29:00,60.0,52.0,29.87,SSE,167,12.0,13.0,75,0.00,,,0.50,WeatherCatV1.11B39,2013-03-31 16:29:00,
2013-03-31 12:34:00,60.3,52.3,29.87,SE,135,9.0,15.0,75,0.00,,,0.50,WeatherCatV1.11B39,2013-03-31 16:34:00,
2013-03-31 12:39:00,60.5,52.2,29.86,SSW,194,5.0,15.0,74,0.00,,,0.50,WeatherCatV1.11B39,2013-03-31 16:39:00,
2013-03-31 12:44:00,60.7,52.4,29.87,South,175,12.0,19.0,74,0.00,,,0.50,WeatherCatV1.11B39,2013-03-31 16:44:00,
2013-03-31 12:49:00,60.8,53.2,29.87,SE,144,8.0,17.0,76,0.00,,,0.50,WeatherCatV1.11B39,2013-03-31 16:49:00,
2013-03-31 12:54:00,60.9,53.3,29.87,WNW,284,11.0,12.0,76,0.00,,,0.50,WeatherCatV1.11B39,2013-03-31 16:54:00,
2013-03-31 12:59:00,61.2,52.8,29.86,SSW,196,3.0,13.0,74,0.00,,,0.50,WeatherCatV1.11B39,2013-03-31 16:59:00,
2013-03-31 13:04:00,61.2,52.5,29.85,SE,145,11.0,11.0,73,0.00,,,0.50,WeatherCatV1.11B39,2013-03-31 17:04:00,
2013-03-31 13:09:00,61.3,52.6,29.85,SSE,158,11.0,13.0,73,0.00,,,0.50,WeatherCatV1.11B39,2013-03-31 17:09:00,
2013-03-31 13:14:00,61.1,52.0,29.85,WSW,244,5.0,22.0,72,0.00,,,0.50,WeatherCatV1.11B39,2013-03-31 17:14:00,
2013-03-31 13:19:00,61.1,52.4,29.85,South,171,4.0,8.0,73,0.00,,,0.50,WeatherCatV1.11B39,2013-03-31 17:19:00,
2013-03-31 13:24:00,61.3,52.6,29.85,South,170,6.0,9.0,73,0.00,,,0.50,WeatherCatV1.11B39,2013-03-31 17:24:00,
2013-03-31 13:29:00,61.5,52.0,29.85,SSE,167,7.0,18.0,71,0.00,,,0.50,WeatherCatV1.11B39,2013-03-31 17:29:00,
2013-03-31 13:34:00,61.9,53.1,29.85,South,173,12.0,15.0,73,0.00,,,0.50,WeatherCatV1.11B39,2013-03-31 17:34:00,
2013-03-31 13:39:00,62.1,53.0,29.85,South,169,14.0,20.0,72,0.00,,,0.50,WeatherCatV1.11B39,2013-03-31 17:39:00,
2013-03-31 13:44:00,61.7,52.6,29.85,SSE,161,9.0,12.0,72,0.00,,,0.50,WeatherCatV1.11B39,2013-03-31 17:44:00,
2013-03-31 13:49:00,61.6,52.9,29.84,South,173,9.0,17.0,73,0.00,,,0.50,WeatherCatV1.11B39,2013-03-31 17:49:00,
2013-03-31 13:54:00,62.0,52.9,29.84,SE,134,13.0,15.0,72,0.00,,,0.50,WeatherCatV1.11B39,2013-03-31 17:54:00,
2013-03-31 13:59:00,62.5,53.3,29.84,West,273,9.0,17.0,72,0.00,,,0.50,WeatherCatV1.11B39,2013-03-31 17:59:00,
2013-03-31 14:04:00,63.0,53.8,29.83,SW,230,7.0,7.0,72,0.00,,,0.50,WeatherCatV1.11B39,2013-03-31 18:04:00,
2013-03-31 14:09:00,63.2,52.9,29.82,SSW,210,6.0,11.0,69,0.00,,,0.50,WeatherCatV1.11B39,2013-03-31 18:09:00,
2013-03-31 14:14:00,63.7,53.7,29.83,SSW,202,7.0,14.0,70,0.00,,,0.50,WeatherCatV1.11B39,2013-03-31 18:14:00,
2013-03-31 14:19:00,62.8,52.9,29.83,SSW,192,6.0,19.0,70,0.00,,,0.50,WeatherCatV1.11B39,2013-03-31 18:19:00,
2013-03-31 14:24:00,62.5,53.3,29.83,SSE,161,6.0,11.0,72,0.00,,,0.50,WeatherCatV1.11B39,2013-03-31 18:24:00,
2013-03-31 14:29:00,62.5,53.7,29.83,SSE,160,12.0,15.0,73,0.00,,,0.50,WeatherCatV1.11B39,2013-03-31 18:29:00,
2013-03-31 14:34:00,62.1,53.7,29.83,SW,232,10.0,15.0,74,0.00,,,0.50,WeatherCatV1.11B39,2013-03-31 18:34:00,
2013-03-31 14:39:00,61.6,54.3,29.83,South,169,5.0,8.0,77,0.00,,,0.51,WeatherCatV1.11B39,2013-03-31 18:39:00,
2013-03-31 14:44:00,60.8,54.6,29.83,SSE,162,10.0,11.0,80,0.17,,,0.52,WeatherCatV1.11B39,2013-03-31 18:44:00,
2013-03-31 14:49:00,59.6,54.4,29.84,SSE,157,14.0,14.0,83,0.20,,,0.54,WeatherCatV1.11B39,2013-03-31 18:49:00,
2013-03-31 14:54:00,58.7,54.5,29.84,SSE,162,13.0,13.0,86,0.19,,,0.55,WeatherCatV1.11B39,2013-03-31 18:54:00,
2013-03-31 14:59:00,58.2,54.7,29.84,SE,134,8.0,10.0,88,0.13,,,0.56,WeatherCatV1.11B39,2013-03-31 18:59:00,
2013-03-31 15:04:00,57.9,54.7,29.84,SSE,157,2.0,5.0,89,0.12,,,0.57,WeatherCatV1.11B39,2013-03-31 19:04:00,
2013-03-31 15:09:00,57.8,54.9,29.84,WSW,250,4.0,5.0,90,0.09,,,0.58,WeatherCatV1.11B39,2013-03-31 19:09:00,
2013-03-31 15:14:00,57.7,55.1,29.83,SW,219,2.0,3.0,91,0.10,,,0.59,WeatherCatV1.11B39,2013-03-31 19:14:00,
2013-03-31 15:19:00,57.6,55.0,29.83,SSE,149,0.0,7.0,91,0.10,,,0.59,WeatherCatV1.11B39,2013-03-31 19:19:00,
2013-03-31 15:24:00,57.6,55.3,29.83,SSE,150,2.0,5.0,92,0.06,,,0.59,WeatherCatV1.11B39,2013-03-31 19:24:00,
2013-03-31 15:29:00,57.8,55.5,29.83,SSE,150,2.0,5.0,92,0.04,,,0.59,WeatherCatV1.11B39,2013-03-31 19:29:00,
2013-03-31 15:34:00,57.9,55.6,29.82,SSE,148,0.0,1.0,92,0.00,,,0.59,WeatherCatV1.11B39,2013-03-31 19:34:00,
2013-03-31 15:39:00,58.1,55.8,29.82,SSE,152,1.0,4.0,92,0.00,,,0.59,WeatherCatV1.11B39,2013-03-31 19:39:00,
2013-03-31 15:44:00,58.2,55.9,29.82,SSE,157,2.0,7.0,92,0.00,,,0.59,WeatherCatV1.11B39,2013-03-31 19:44:00,
2013-03-31 15:49:00,58.3,56.0,29.82,SSE,150,7.0,8.0,92,0.00,,,0.59,WeatherCatV1.11B39,2013-03-31 19:49:00,
2013-03-31 15:54:00,58.4,56.1,29.82,SSE,150,6.0,8.0,92,0.00,,,0.59,WeatherCatV1.11B39,2013-03-31 19:54:00,
2013-03-31 15:59:00,58.5,55.9,29.82,South,188,8.0,10.0,91,0.00,,,0.59,WeatherCatV1.11B39,2013-03-31 19:59:00,
2013-03-31 16:04:00,58.7,56.1,29.82,SSE,161,9.0,9.0,91,0.00,,,0.59,WeatherCatV1.11B39,2013-03-31 20:04:00,
2013-03-31 16:09:00,58.7,56.1,29.81,SSE,155,6.0,8.0,91,0.00,,,0.59,WeatherCatV1.11B39,2013-03-31 20:09:00,
2013-03-31 16:14:00,58.9,56.3,29.81,SSE,157,6.0,8.0,91,0.00,,,0.59,WeatherCatV1.11B39,2013-03-31 20:14:00,
2013-03-31 16:19:00,59.0,55.8,29.80,South,171,6.0,6.0,89,0.00,,,0.59,WeatherCatV1.11B39,2013-03-31 20:19:00,
2013-03-31 16:24:00,59.1,55.9,29.80,SSE,159,7.0,10.0,89,0.00,,,0.59,WeatherCatV1.11B39,2013-03-31 20:24:00,
2013-03-31 16:29:00,59.3,55.7,29.80,SSE,162,7.0,10.0,88,0.00,,,0.59,WeatherCatV1.11B39,2013-03-31 20:29:00,
2013-03-31 16:34:00,59.5,56.3,29.79,South,180,4.0,7.0,89,0.00,,,0.59,WeatherCatV1.11B39,2013-03-31 20:34:00,
2013-03-31 16:39:00,59.8,56.5,29.79,South,187,7.0,12.0,89,0.00,,,0.59,WeatherCatV1.11B39,2013-03-31 20:39:00,
2013-03-31 16:44:00,59.9,56.6,29.79,South,180,11.0,13.0,89,0.00,,,0.59,WeatherCatV1.11B39,2013-03-31 20:44:00,
2013-03-31 16:49:00,60.2,56.3,29.79,SSE,155,7.0,13.0,87,0.00,,,0.59,WeatherCatV1.11B39,2013-03-31 20:49:00,
2013-03-31 16:54:00,60.3,56.4,29.79,SSE,156,12.0,12.0,87,0.00,,,0.59,WeatherCatV1.11B39,2013-03-31 20:54:00,
2013-03-31 16:59:00,60.5,56.6,29.80,SE,145,6.0,8.0,87,0.00,,,0.59,WeatherCatV1.11B39,2013-03-31 20:59:00,
2013-03-31 17:04:00,60.8,56.6,29.79,SSE,165,8.0,11.0,86,0.00,,,0.59,WeatherCatV1.11B39,2013-03-31 21:04:00,
2013-03-31 17:09:00,61.0,56.1,29.80,ESE,115,2.0,10.0,84,0.00,,,0.59,WeatherCatV1.11B39,2013-03-31 21:09:00,
2013-03-31 17:14:00,61.2,56.7,29.80,SSE,162,2.0,7.0,85,0.00,,,0.59,WeatherCatV1.11B39,2013-03-31 21:14:00,
2013-03-31 17:18:00,61.3,56.7,29.80,WSW,249,2.0,7.0,85,0.00,,,0.59,WeatherCatV1.11B39,2013-03-31 21:18:00,
2013-03-31 17:23:00,61.4,56.5,29.80,SW,232,5.0,8.0,84,0.00,,,0.59,WeatherCatV1.11B39,2013-03-31 21:23:00,
2013-03-31 17:28:00,61.4,56.2,29.80,SW,230,4.0,7.0,83,0.00,,,0.59,WeatherCatV1.11B39,2013-03-31 21:28:00,
2013-03-31 17:33:00,61.5,55.9,29.80,SE,129,4.0,6.0,82,0.00,,,0.59,WeatherCatV1.11B39,2013-03-31 21:33:00,
2013-03-31 17:38:00,61.5,55.9,29.80,West,261,5.0,11.0,82,0.00,,,0.59,WeatherCatV1.11B39,2013-03-31 21:38:00,
2013-03-31 17:43:00,61.6,55.7,29.80,WSW,244,3.0,5.0,81,0.00,,,0.59,WeatherCatV1.11B39,2013-03-31 21:43:00,
2013-03-31 17:48:00,61.6,55.7,29.80,SSW,207,2.0,7.0,81,0.00,,,0.59,WeatherCatV1.11B39,2013-03-31 21:48:00,
2013-03-31 17:53:00,61.5,55.6,29.80,SW,223,2.0,6.0,81,0.00,,,0.59,WeatherCatV1.11B39,2013-03-31 21:53:00,
2013-03-31 17:58:00,61.6,56.0,29.79,West,273,1.0,4.0,82,0.00,,,0.59,WeatherCatV1.11B39,2013-03-31 21:58:00,
2013-03-31 18:03:00,61.8,55.9,29.79,West,271,2.0,6.0,81,0.00,,,0.59,WeatherCatV1.11B39,2013-03-31 22:03:00,
2013-03-31 18:08:00,61.9,56.7,29.79,West,269,1.0,1.0,83,0.00,,,0.59,WeatherCatV1.11B39,2013-03-31 22:08:00,
2013-03-31 18:13:00,61.9,55.7,29.79,South,173,4.0,8.0,80,0.00,,,0.59,WeatherCatV1.11B39,2013-03-31 22:13:00,
2013-03-31 18:18:00,62.0,56.1,29.79,South,169,6.0,6.0,81,0.00,,,0.59,WeatherCatV1.11B39,2013-03-31 22:18:00,
2013-03-31 18:23:00,62.0,55.8,29.79,WSW,246,2.0,2.0,80,0.00,,,0.59,WeatherCatV1.11B39,2013-03-31 22:23:00,
2013-03-31 18:28:00,62.1,55.9,29.79,SW,235,2.0,4.0,80,0.00,,,0.59,WeatherCatV1.11B39,2013-03-31 22:28:00,
2013-03-31 18:33:00,62.2,55.9,29.79,SW,234,4.0,4.0,80,0.00,,,0.59,WeatherCatV1.11B39,2013-03-31 22:33:00,
2013-03-31 18:38:00,62.2,55.6,29.79,SW,224,2.0,3.0,79,0.00,,,0.59,WeatherCatV1.11B39,2013-03-31 22:38:00,
2013-03-31 18:43:00,62.2,55.6,29.79,West,260,1.0,5.0,79,0.00,,,0.59,WeatherCatV1.11B39,2013-03-31 22:43:00,
2013-03-31 18:48:00,62.2,55.6,29.79,WNW,284,0.0,2.0,79,0.00,,,0.59,WeatherCatV1.11B39,2013-03-31 22:48:00,
2013-03-31 18:53:00,62.1,55.9,29.79,WNW,295,6.0,6.0,80,0.00,,,0.59,WeatherCatV1.11B39,2013-03-31 22:53:00,
2013-03-31 18:58:00,62.0,55.4,29.79,WSW,250,2.0,4.0,79,0.00,,,0.59,WeatherCatV1.11B39,2013-03-31 22:58:00,
2013-03-31 19:03:00,61.9,55.7,29.78,WSW,252,1.0,4.0,80,0.00,,,0.59,WeatherCatV1.11B39,2013-03-31 23:03:00,
2013-03-31 19:08:00,61.8,55.6,29.78,WSW,252,0.0,3.0,80,0.00,,,0.59,WeatherCatV1.11B39,2013-03-31 23:08:00,
2013-03-31 19:13:00,61.8,55.6,29.78,WSW,252,0.0,0.0,80,0.00,,,0.59,WeatherCatV1.11B39,2013-03-31 23:13:00,
2013-03-31 19:18:00,61.6,55.7,29.78,WSW,252,0.0,0.0,81,0.00,,,0.59,WeatherCatV1.11B39,2013-03-31 23:18:00,
2013-03-31 19:23:00,61.5,55.6,29.78,WSW,252,0.0,0.0,81,0.00,,,0.59,WeatherCatV1.11B39,2013-03-31 23:23:00,
2013-03-31 19:28:00,61.4,55.5,29.78,WSW,252,0.0,0.0,81,0.00,,,0.59,WeatherCatV1.11B39,2013-03-31 23:28:00,
2013-03-31 19:33:00,61.2,55.3,29.78,WSW,252,0.0,0.0,81,0.00,,,0.59,WeatherCatV1.11B39,2013-03-31 23:33:00,
2013-03-31 19:38:00,61.0,55.8,29.78,WSW,252,0.0,0.0,83,0.00,,,0.59,WeatherCatV1.11B39,2013-03-31 23:38:00,
2013-03-31 19:43:00,60.8,55.6,29.78,WSW,252,0.0,0.0,83,0.00,,,0.59,WeatherCatV1.11B39,2013-03-31 23:43:00,
2013-03-31 19:48:00,60.5,55.6,29.78,WSW,252,0.0,0.0,84,0.00,,,0.59,WeatherCatV1.11B39,2013-03-31 23:48:00,
2013-03-31 19:53:00,60.3,55.4,29.78,WSW,252,0.0,0.0,84,0.00,,,0.59,WeatherCatV1.11B39,2013-03-31 23:53:00,
2013-03-31 19:58:00,60.1,55.6,29.78,WSW,252,0.0,0.0,85,0.00,,,0.59,WeatherCatV1.11B39,2013-03-31 23:58:00,
2013-03-31 20:03:00,59.8,55.6,29.78,WSW,252,2.0,3.0,86,0.00,,,0.59,WeatherCatV1.11B39,2013-04-01 00:03:00,
2013-03-31 20:08:00,59.5,55.3,29.78,WSW,252,0.0,1.0,86,0.00,,,0.59,WeatherCatV1.11B39,2013-04-01 00:08:00,
2013-03-31 20:13:00,59.3,55.4,29.79,WSW,252,0.0,0.0,87,0.00,,,0.59,WeatherCatV1.11B39,2013-04-01 00:13:00,
2013-03-31 20:18:00,58.9,55.3,29.79,WSW,252,0.0,0.0,88,0.00,,,0.59,WeatherCatV1.11B39,2013-04-01 00:18:00,
2013-03-31 20:23:00,58.6,55.1,29.78,WSW,252,0.0,0.0,88,0.00,,,0.59,WeatherCatV1.11B39,2013-04-01 00:23:00,
2013-03-31 20:28:00,58.5,55.0,29.78,WSW,252,0.0,0.0,88,0.00,,,0.59,WeatherCatV1.11B39,2013-04-01 00:28:00,
2013-03-31 20:33:00,58.3,55.1,29.78,WSW,252,0.0,0.0,89,0.00,,,0.59,WeatherCatV1.11B39,2013-04-01 00:33:00,
2013-03-31 20:38:00,58.1,54.9,29.78,WSW,252,0.0,0.0,89,0.00,,,0.59,WeatherCatV1.11B39,2013-04-01 00:38:00,
2013-03-31 20:43:00,57.9,55.0,29.79,WSW,252,0.0,0.0,90,0.00,,,0.59,WeatherCatV1.11B39,2013-04-01 00:43:00,
2013-03-31 20:48:00,57.7,54.8,29.79,WSW,252,0.0,0.0,90,0.00,,,0.59,WeatherCatV1.11B39,2013-04-01 00:48:00,
2013-03-31 20:53:00,57.6,54.7,29.79,WSW,252,0.0,0.0,90,0.00,,,0.59,WeatherCatV1.11B39,2013-04-01 00:53:00,
2013-03-31 20:58:00,57.5,54.9,29.79,WSW,252,0.0,0.0,91,0.00,,,0.59,WeatherCatV1.11B39,2013-04-01 00:58:00,
2013-03-31 21:03:00,57.3,54.7,29.79,WSW,252,0.0,0.0,91,0.00,,,0.59,WeatherCatV1.11B39,2013-04-01 01:03:00,
2013-03-31 21:08:00,57.3,54.7,29.79,WSW,252,0.0,0.0,91,0.00,,,0.59,WeatherCatV1.11B39,2013-04-01 01:08:00,
2013-03-31 21:13:00,57.2,54.6,29.79,WSW,252,0.0,0.0,91,0.00,,,0.59,WeatherCatV1.11B39,2013-04-01 01:13:00,
2013-03-31 21:18:00,57.1,54.5,29.80,WSW,252,1.0,2.0,91,0.00,,,0.60,WeatherCatV1.11B39,2013-04-01 01:18:00,
2013-03-31 21:23:00,57.0,54.7,29.80,WSW,252,1.0,2.0,92,0.00,,,0.60,WeatherCatV1.11B39,2013-04-01 01:23:00,
2013-03-31 21:28:00,56.9,54.6,29.80,WSW,252,2.0,2.0,92,0.06,,,0.61,WeatherCatV1.11B39,2013-04-01 01:28:00,
2013-03-31 21:33:00,56.9,54.6,29.80,WSW,252,2.0,3.0,92,0.10,,,0.62,WeatherCatV1.11B39,2013-04-01 01:33:00,
2013-03-31 21:38:00,56.8,54.8,29.80,WSW,252,0.0,0.0,93,0.10,,,0.62,WeatherCatV1.11B39,2013-04-01 01:38:00,
2013-03-31 21:43:00,56.8,54.8,29.81,WSW,252,0.0,0.0,93,0.06,,,0.62,WeatherCatV1.11B39,2013-04-01 01:43:00,
2013-03-31 21:48:00,56.6,54.6,29.81,WSW,252,0.0,2.0,93,0.04,,,0.62,WeatherCatV1.11B39,2013-04-01 01:48:00,
2013-03-31 21:53:00,56.5,54.5,29.80,WSW,252,0.0,0.0,93,0.00,,,0.62,WeatherCatV1.11B39,2013-04-01 01:53:00,
2013-03-31 21:58:00,56.5,54.5,29.80,WSW,252,1.0,1.0,93,0.00,,,0.62,WeatherCatV1.11B39,2013-04-01 01:58:00,
2013-03-31 22:03:00,56.5,54.8,29.80,WSW,252,2.0,3.0,94,0.00,,,0.62,WeatherCatV1.11B39,2013-04-01 02:03:00,
2013-03-31 22:08:00,56.6,54.9,29.80,WSW,252,2.0,2.0,94,0.00,,,0.62,WeatherCatV1.11B39,2013-04-01 02:08:00,
2013-03-31 22:13:00,56.5,54.8,29.80,WSW,252,2.0,2.0,94,0.00,,,0.62,WeatherCatV1.11B39,2013-04-01 02:13:00,
2013-03-31 22:17:00,56.4,54.7,29.80,WSW,252,0.0,0.0,94,0.00,,,0.62,WeatherCatV1.11B39,2013-04-01 02:17:00,
2013-03-31 22:22:00,56.3,54.6,29.80,WSW,252,0.0,0.0,94,0.00,,,0.62,WeatherCatV1.11B39,2013-04-01 02:22:00,
2013-03-31 22:27:00,56.3,54.6,29.80,WSW,252,0.0,0.0,94,0.00,,,0.62,WeatherCatV1.11B39,2013-04-01 02:27:00,
2013-03-31 22:32:00,56.2,54.5,29.80,WSW,252,0.0,1.0,94,0.00,,,0.62,WeatherCatV1.11B39,2013-04-01 02:32:00,
2013-03-31 22:37:00,56.1,54.4,29.80,WSW,252,0.0,0.0,94,0.00,,,0.62,WeatherCatV1.11B39,2013-04-01 02:37:00,
2013-03-31 22:42:00,56.1,54.4,29.80,WSW,252,0.0,0.0,94,0.00,,,0.62,WeatherCatV1.11B39,2013-04-01 02:42:00,
2013-03-31 22:47:00,56.1,54.4,29.81,WSW,252,0.0,0.0,94,0.00,,,0.62,WeatherCatV1.11B39,2013-04-01 02:47:00,
2013-03-31 22:52:00,56.0,54.3,29.81,WSW,252,0.0,0.0,94,0.00,,,0.62,WeatherCatV1.11B39,2013-04-01 02:52:00,
2013-03-31 22:57:00,56.0,54.3,29.81,WSW,252,0.0,1.0,94,0.00,,,0.62,WeatherCatV1.11B39,2013-04-01 02:57:00,
2013-03-31 23:02:00,56.0,54.3,29.81,WSW,252,0.0,0.0,94,0.00,,,0.62,WeatherCatV1.11B39,2013-04-01 03:02:00,
2013-03-31 23:07:00,56.0,54.3,29.81,WSW,252,0.0,0.0,94,0.00,,,0.62,WeatherCatV1.11B39,2013-04-01 03:07:00,
2013-03-31 23:12:00,56.0,54.3,29.81,WSW,252,0.0,0.0,94,0.00,,,0.62,WeatherCatV1.11B39,2013-04-01 03:12:00,
2013-03-31 23:17:00,56.0,54.3,29.81,WSW,252,0.0,0.0,94,0.00,,,0.62,WeatherCatV1.11B39,2013-04-01 03:17:00,
2013-03-31 23:22:00,55.9,54.2,29.81,WSW,252,0.0,0.0,94,0.00,,,0.62,WeatherCatV1.11B39,2013-04-01 03:22:00,
2013-03-31 23:27:00,55.9,54.2,29.81,WSW,252,0.0,0.0,94,0.00,,,0.62,WeatherCatV1.11B39,2013-04-01 03:27:00,
2013-03-31 23:32:00,55.8,54.4,29.81,WSW,252,0.0,0.0,95,0.00,,,0.62,WeatherCatV1.11B39,2013-04-01 03:32:00,
2013-03-31 23:37:00,55.8,54.4,29.81,WSW,252,0.0,0.0,95,0.00,,,0.62,WeatherCatV1.11B39,2013-04-01 03:37:00,
2013-03-31 23:42:00,55.8,54.4,29.80,WSW,252,0.0,0.0,95,0.00,,,0.62,WeatherCatV1.11B39,2013-04-01 03:42:00,
2013-03-31 23:47:00,55.8,54.4,29.80,WSW,252,1.0,3.0,95,0.00,,,0.62,WeatherCatV1.11B39,2013-04-01 03:47:00,
2013-03-31 23:52:00,55.8,54.4,29.79,WSW,252,0.0,0.0,95,0.00,,,0.63,WeatherCatV1.11B39,2013-04-01 03:52:00,
2013-03-31 23:57:00,55.7,54.3,29.79,WSW,252,0.0,0.0,95,0.00,,,0.63,WeatherCatV1.11B39,2013-04-01 03:57:00,